sensor_id;sensor_type;location;lat;lon;timestamp;temperature;humidity
32728;DHT22;55292;51.844;19.246;2022-10-19T00:06:18;11.20;99.90
32728;DHT22;55292;51.844;19.246;2022-10-19T00:11:27;11.30;99.90
32728;DHT22;55292;51.844;19.246;2022-10-19T00:16:32;11.30;99.90
32728;DHT22;55292;51.844;19.246;2022-10-19T00:21:35;11.30;99.90
32728;DHT22;55292;51.844;19.246;2022-10-19T00:26:38;11.20;99.90
32728;DHT22;55292;51.844;19.246;2022-10-19T00:31:41;10.90;99.90
32728;DHT22;55292;51.844;19.246;2022-10-19T00:36:44;10.50;99.90
32728;DHT22;55292;51.844;19.246;2022-10-19T00:41:48;10.10;99.90
32728;DHT22;55292;51.844;19.246;2022-10-19T00:46:50;9.80;99.90
32728;DHT22;55292;51.844;19.246;2022-10-19T00:51:58;9.70;99.90
32728;DHT22;55292;51.844;19.246;2022-10-19T00:57:03;9.50;99.90
32728;DHT22;55292;51.844;19.246;2022-10-19T01:02:06;9.50;99.90
32728;DHT22;55292;51.844;19.246;2022-10-19T01:07:08;9.40;99.90
32728;DHT22;55292;51.844;19.246;2022-10-19T01:49:23;9.90;99.90
32728;DHT22;55292;51.844;19.246;2022-10-19T01:54:31;9.90;99.90
32728;DHT22;55292;51.844;19.246;2022-10-19T01:59:36;10.00;99.90
32728;DHT22;55292;51.844;19.246;2022-10-19T02:04:40;10.00;99.90
32728;DHT22;55292;51.844;19.246;2022-10-19T02:09:43;9.90;99.90
32728;DHT22;55292;51.844;19.246;2022-10-19T02:14:49;9.90;99.90
32728;DHT22;55292;51.844;19.246;2022-10-19T02:19:53;9.80;99.90
32728;DHT22;55292;51.844;19.246;2022-10-19T02:24:56;9.70;99.90
32728;DHT22;55292;51.844;19.246;2022-10-19T02:29:59;9.70;99.90
32728;DHT22;55292;51.844;19.246;2022-10-19T02:35:01;9.70;99.90
32728;DHT22;55292;51.844;19.246;2022-10-19T02:40:05;9.80;99.90
32728;DHT22;55292;51.844;19.246;2022-10-19T02:45:12;9.70;99.90
32728;DHT22;55292;51.844;19.246;2022-10-19T02:50:19;9.70;99.90
32728;DHT22;55292;51.844;19.246;2022-10-19T02:55:22;9.70;99.90
32728;DHT22;55292;51.844;19.246;2022-10-19T03:00:24;9.70;99.90
32728;DHT22;55292;51.844;19.246;2022-10-19T03:05:27;11.20;99.90
32728;DHT22;55292;51.844;19.246;2022-10-19T03:10:29;9.80;99.90
32728;DHT22;55292;51.844;19.246;2022-10-19T03:15:32;9.80;99.90
32728;DHT22;55292;51.844;19.246;2022-10-19T03:20:34;9.90;99.90
32728;DHT22;55292;51.844;19.246;2022-10-19T03:25:40;10.00;99.90
32728;DHT22;55292;51.844;19.246;2022-10-19T03:30:42;10.10;99.90
32728;DHT22;55292;51.844;19.246;2022-10-19T03:35:45;10.10;99.90
32728;DHT22;55292;51.844;19.246;2022-10-19T03:40:47;10.10;99.90
32728;DHT22;55292;51.844;19.246;2022-10-19T03:45:50;10.20;99.90
32728;DHT22;55292;51.844;19.246;2022-10-19T03:51:00;10.20;99.90
32728;DHT22;55292;51.844;19.246;2022-10-19T03:56:04;10.10;99.90
32728;DHT22;55292;51.844;19.246;2022-10-19T04:01:12;10.20;99.90
32728;DHT22;55292;51.844;19.246;2022-10-19T04:06:16;10.20;99.90
32728;DHT22;55292;51.844;19.246;2022-10-19T04:11:25;10.10;99.90
32728;DHT22;55292;51.844;19.246;2022-10-19T04:16:30;10.10;99.90
32728;DHT22;55292;51.844;19.246;2022-10-19T04:21:35;10.10;99.90
32728;DHT22;55292;51.844;19.246;2022-10-19T04:26:56;10.10;99.90
32728;DHT22;55292;51.844;19.246;2022-10-19T04:31:59;10.10;99.90
32728;DHT22;55292;51.844;19.246;2022-10-19T04:37:01;10.00;99.90
32728;DHT22;55292;51.844;19.246;2022-10-19T04:42:04;10.00;99.90
32728;DHT22;55292;51.844;19.246;2022-10-19T04:47:06;10.00;99.90
32728;DHT22;55292;51.844;19.246;2022-10-19T04:52:09;10.00;99.90
32728;DHT22;55292;51.844;19.246;2022-10-19T04:57:11;9.90;99.90
32728;DHT22;55292;51.844;19.246;2022-10-19T05:02:14;10.00;99.90
32728;DHT22;55292;51.844;19.246;2022-10-19T05:07:16;10.00;99.90
32728;DHT22;55292;51.844;19.246;2022-10-19T05:12:19;10.00;99.90
32728;DHT22;55292;51.844;19.246;2022-10-19T05:17:21;10.00;99.90
32728;DHT22;55292;51.844;19.246;2022-10-19T05:22:24;10.00;99.90
32728;DHT22;55292;51.844;19.246;2022-10-19T05:27:26;10.00;99.90
32728;DHT22;55292;51.844;19.246;2022-10-19T05:32:29;10.10;99.90
32728;DHT22;55292;51.844;19.246;2022-10-19T05:37:31;10.10;99.90
32728;DHT22;55292;51.844;19.246;2022-10-19T05:42:35;10.10;99.90
32728;DHT22;55292;51.844;19.246;2022-10-19T05:47:37;10.20;99.90
32728;DHT22;55292;51.844;19.246;2022-10-19T05:52:40;10.20;99.90
32728;DHT22;55292;51.844;19.246;2022-10-19T05:57:42;10.30;99.90
32728;DHT22;55292;51.844;19.246;2022-10-19T06:02:45;10.30;99.90
32728;DHT22;55292;51.844;19.246;2022-10-19T06:07:47;10.40;99.90
32728;DHT22;55292;51.844;19.246;2022-10-19T06:12:50;10.40;99.90
32728;DHT22;55292;51.844;19.246;2022-10-19T06:17:52;10.40;99.90
32728;DHT22;55292;51.844;19.246;2022-10-19T06:22:55;10.40;99.90
32728;DHT22;55292;51.844;19.246;2022-10-19T06:27:58;10.40;99.90
32728;DHT22;55292;51.844;19.246;2022-10-19T06:33:01;10.50;99.90
32728;DHT22;55292;51.844;19.246;2022-10-19T06:38:04;10.50;99.90
32728;DHT22;55292;51.844;19.246;2022-10-19T06:43:07;10.50;99.90
32728;DHT22;55292;51.844;19.246;2022-10-19T06:48:09;10.60;99.90
32728;DHT22;55292;51.844;19.246;2022-10-19T06:53:12;10.70;99.90
32728;DHT22;55292;51.844;19.246;2022-10-19T06:58:14;10.80;99.90
32728;DHT22;55292;51.844;19.246;2022-10-19T07:03:17;10.80;99.90
32728;DHT22;55292;51.844;19.246;2022-10-19T07:08:19;10.80;99.90
32728;DHT22;55292;51.844;19.246;2022-10-19T07:13:22;10.90;99.90
32728;DHT22;55292;51.844;19.246;2022-10-19T07:18:25;11.00;99.90
32728;DHT22;55292;51.844;19.246;2022-10-19T07:23:30;11.10;99.90
32728;DHT22;55292;51.844;19.246;2022-10-19T07:28:33;11.00;99.90
32728;DHT22;55292;51.844;19.246;2022-10-19T07:33:36;11.10;99.90
32728;DHT22;55292;51.844;19.246;2022-10-19T07:38:40;11.20;99.90
32728;DHT22;55292;51.844;19.246;2022-10-19T07:43:44;11.50;99.90
32728;DHT22;55292;51.844;19.246;2022-10-19T07:48:47;11.50;99.90
32728;DHT22;55292;51.844;19.246;2022-10-19T07:53:49;11.80;99.90
32728;DHT22;55292;51.844;19.246;2022-10-19T07:58:54;12.10;99.90
32728;DHT22;55292;51.844;19.246;2022-10-19T08:03:58;11.80;99.90
32728;DHT22;55292;51.844;19.246;2022-10-19T08:09:20;11.80;99.90
32728;DHT22;55292;51.844;19.246;2022-10-19T08:14:43;11.80;99.90
32728;DHT22;55292;51.844;19.246;2022-10-19T08:19:45;11.80;99.90
32728;DHT22;55292;51.844;19.246;2022-10-19T08:24:48;11.80;99.90
32728;DHT22;55292;51.844;19.246;2022-10-19T08:29:51;12.00;99.90
32728;DHT22;55292;51.844;19.246;2022-10-19T08:34:53;12.00;99.90
32728;DHT22;55292;51.844;19.246;2022-10-19T08:39:56;12.30;99.90
32728;DHT22;55292;51.844;19.246;2022-10-19T08:50:35;12.10;99.90
32728;DHT22;55292;51.844;19.246;2022-10-19T08:56:22;12.20;99.90
32728;DHT22;55292;51.844;19.246;2022-10-19T09:17:45;10.90;99.90
32728;DHT22;55292;51.844;19.246;2022-10-19T09:23:03;10.80;99.90
32728;DHT22;55292;51.844;19.246;2022-10-19T09:33:54;10.80;99.90
32728;DHT22;55292;51.844;19.246;2022-10-19T09:38:58;10.90;99.90
32728;DHT22;55292;51.844;19.246;2022-10-19T09:44:01;11.10;99.90
32728;DHT22;55292;51.844;19.246;2022-10-19T09:49:04;11.00;99.90
32728;DHT22;55292;51.844;19.246;2022-10-19T09:54:25;11.40;99.90
32728;DHT22;55292;51.844;19.246;2022-10-19T09:59:34;11.80;99.90
32728;DHT22;55292;51.844;19.246;2022-10-19T10:04:37;12.00;99.90
32728;DHT22;55292;51.844;19.246;2022-10-19T10:09:42;11.90;99.90
32728;DHT22;55292;51.844;19.246;2022-10-19T10:14:48;12.00;99.90
32728;DHT22;55292;51.844;19.246;2022-10-19T10:20:03;12.10;99.90
32728;DHT22;55292;51.844;19.246;2022-10-19T10:25:15;12.40;99.90
32728;DHT22;55292;51.844;19.246;2022-10-19T10:30:18;12.40;99.90
32728;DHT22;55292;51.844;19.246;2022-10-19T10:35:34;12.10;99.90
32728;DHT22;55292;51.844;19.246;2022-10-19T10:40:37;12.20;99.90
32728;DHT22;55292;51.844;19.246;2022-10-19T10:45:44;12.20;99.90
32728;DHT22;55292;51.844;19.246;2022-10-19T10:50:48;11.60;99.90
32728;DHT22;55292;51.844;19.246;2022-10-19T10:55:56;11.30;99.90
32728;DHT22;55292;51.844;19.246;2022-10-19T11:01:02;11.20;99.90
32728;DHT22;55292;51.844;19.246;2022-10-19T11:06:09;11.30;99.90
32728;DHT22;55292;51.844;19.246;2022-10-19T11:11:16;11.70;99.90
32728;DHT22;55292;51.844;19.246;2022-10-19T11:16:41;11.90;99.90
32728;DHT22;55292;51.844;19.246;2022-10-19T11:43:37;11.40;99.90
32728;DHT22;55292;51.844;19.246;2022-10-19T12:15:26;11.50;99.90
32728;DHT22;55292;51.844;19.246;2022-10-19T12:20:37;11.40;99.90
32728;DHT22;55292;51.844;19.246;2022-10-19T12:25:43;11.30;99.90
32728;DHT22;55292;51.844;19.246;2022-10-19T12:30:46;11.40;99.90
32728;DHT22;55292;51.844;19.246;2022-10-19T12:46:42;12.20;99.90
32728;DHT22;55292;51.844;19.246;2022-10-19T12:51:54;12.60;99.90
32728;DHT22;55292;51.844;19.246;2022-10-19T12:56:59;12.80;99.90
32728;DHT22;55292;51.844;19.246;2022-10-19T13:02:05;13.00;99.90
32728;DHT22;55292;51.844;19.246;2022-10-19T13:07:08;13.20;99.90
32728;DHT22;55292;51.844;19.246;2022-10-19T13:38:35;11.50;99.90
32728;DHT22;55292;51.844;19.246;2022-10-19T14:00:24;11.30;99.90
32728;DHT22;55292;51.844;19.246;2022-10-19T14:10:48;11.20;99.90
32728;DHT22;55292;51.844;19.246;2022-10-19T14:16:02;11.00;99.90
32728;DHT22;55292;51.844;19.246;2022-10-19T14:21:08;10.80;99.90
32728;DHT22;55292;51.844;19.246;2022-10-19T14:26:18;10.70;99.90
32728;DHT22;55292;51.844;19.246;2022-10-19T14:31:33;10.50;99.90
32728;DHT22;55292;51.844;19.246;2022-10-19T14:36:42;10.50;99.90
32728;DHT22;55292;51.844;19.246;2022-10-19T14:41:45;10.60;99.90
32728;DHT22;55292;51.844;19.246;2022-10-19T14:46:47;10.70;99.90
32728;DHT22;55292;51.844;19.246;2022-10-19T14:51:59;10.70;99.90
32728;DHT22;55292;51.844;19.246;2022-10-19T14:57:19;10.60;99.90
32728;DHT22;55292;51.844;19.246;2022-10-19T15:07:42;10.30;99.90
32728;DHT22;55292;51.844;19.246;2022-10-19T15:12:45;10.50;99.90
32728;DHT22;55292;51.844;19.246;2022-10-19T15:18:04;10.50;99.90
32728;DHT22;55292;51.844;19.246;2022-10-19T15:23:33;10.40;99.90
32728;DHT22;55292;51.844;19.246;2022-10-19T15:28:38;10.40;99.90
32728;DHT22;55292;51.844;19.246;2022-10-19T15:33:52;10.30;99.90
32728;DHT22;55292;51.844;19.246;2022-10-19T15:39:01;10.10;99.90
32728;DHT22;55292;51.844;19.246;2022-10-19T15:44:39;9.90;99.90
32728;DHT22;55292;51.844;19.246;2022-10-19T15:54:52;9.40;99.90
32728;DHT22;55292;51.844;19.246;2022-10-19T15:59:56;9.10;99.90
32728;DHT22;55292;51.844;19.246;2022-10-19T16:04:59;8.80;99.90
32728;DHT22;55292;51.844;19.246;2022-10-19T16:10:03;8.60;99.90
32728;DHT22;55292;51.844;19.246;2022-10-19T16:15:06;8.30;99.90
32728;DHT22;55292;51.844;19.246;2022-10-19T16:20:09;8.10;99.90
32728;DHT22;55292;51.844;19.246;2022-10-19T16:25:12;8.30;99.90
32728;DHT22;55292;51.844;19.246;2022-10-19T16:30:17;8.10;99.90
32728;DHT22;55292;51.844;19.246;2022-10-19T16:35:20;7.90;99.90
32728;DHT22;55292;51.844;19.246;2022-10-19T16:40:22;7.70;99.90
32728;DHT22;55292;51.844;19.246;2022-10-19T16:45:26;7.50;99.90
32728;DHT22;55292;51.844;19.246;2022-10-19T16:50:29;7.60;99.90
32728;DHT22;55292;51.844;19.246;2022-10-19T16:55:31;7.50;99.90
32728;DHT22;55292;51.844;19.246;2022-10-19T17:00:34;7.50;99.90
32728;DHT22;55292;51.844;19.246;2022-10-19T17:05:37;7.50;99.90
32728;DHT22;55292;51.844;19.246;2022-10-19T17:10:40;7.50;99.90
32728;DHT22;55292;51.844;19.246;2022-10-19T17:15:43;7.40;99.90
32728;DHT22;55292;51.844;19.246;2022-10-19T17:20:45;7.20;99.90
32728;DHT22;55292;51.844;19.246;2022-10-19T17:25:48;7.10;99.90
32728;DHT22;55292;51.844;19.246;2022-10-19T17:30:51;7.10;99.90
32728;DHT22;55292;51.844;19.246;2022-10-19T17:35:54;6.80;99.90
32728;DHT22;55292;51.844;19.246;2022-10-19T17:41:21;6.70;99.90
32728;DHT22;55292;51.844;19.246;2022-10-19T17:46:28;6.60;99.90
32728;DHT22;55292;51.844;19.246;2022-10-19T17:51:33;6.50;99.90
32728;DHT22;55292;51.844;19.246;2022-10-19T17:56:36;6.00;99.90
32728;DHT22;55292;51.844;19.246;2022-10-19T18:01:39;5.80;99.90
32728;DHT22;55292;51.844;19.246;2022-10-19T18:06:42;5.70;99.90
32728;DHT22;55292;51.844;19.246;2022-10-19T18:11:45;5.30;99.90
32728;DHT22;55292;51.844;19.246;2022-10-19T18:16:48;4.80;99.90
32728;DHT22;55292;51.844;19.246;2022-10-19T18:21:51;4.50;99.90
32728;DHT22;55292;51.844;19.246;2022-10-19T18:26:54;4.30;99.90
32728;DHT22;55292;51.844;19.246;2022-10-19T18:31:57;4.10;99.90
32728;DHT22;55292;51.844;19.246;2022-10-19T18:37:00;3.90;99.90
32728;DHT22;55292;51.844;19.246;2022-10-19T18:42:03;3.90;99.90
32728;DHT22;55292;51.844;19.246;2022-10-19T18:47:05;3.90;99.90
32728;DHT22;55292;51.844;19.246;2022-10-19T18:52:08;3.80;99.90
32728;DHT22;55292;51.844;19.246;2022-10-19T18:57:11;4.40;99.90
32728;DHT22;55292;51.844;19.246;2022-10-19T19:02:14;3.80;99.90
32728;DHT22;55292;51.844;19.246;2022-10-19T19:07:29;3.40;99.90
32728;DHT22;55292;51.844;19.246;2022-10-19T19:12:32;3.30;99.90
32728;DHT22;55292;51.844;19.246;2022-10-19T19:17:36;3.40;99.90
32728;DHT22;55292;51.844;19.246;2022-10-19T19:22:39;3.10;99.90
32728;DHT22;55292;51.844;19.246;2022-10-19T19:27:41;3.00;99.90
32728;DHT22;55292;51.844;19.246;2022-10-19T19:32:44;2.80;99.90
32728;DHT22;55292;51.844;19.246;2022-10-19T19:37:46;2.70;99.90
32728;DHT22;55292;51.844;19.246;2022-10-19T19:42:49;2.60;99.90
32728;DHT22;55292;51.844;19.246;2022-10-19T19:47:52;2.40;99.90
32728;DHT22;55292;51.844;19.246;2022-10-19T19:53:00;2.40;99.90
32728;DHT22;55292;51.844;19.246;2022-10-19T19:58:03;2.40;99.90
32728;DHT22;55292;51.844;19.246;2022-10-19T20:03:05;2.40;99.90
32728;DHT22;55292;51.844;19.246;2022-10-19T20:08:08;2.30;99.90
32728;DHT22;55292;51.844;19.246;2022-10-19T20:13:11;2.40;99.90
32728;DHT22;55292;51.844;19.246;2022-10-19T20:18:13;2.30;99.90
32728;DHT22;55292;51.844;19.246;2022-10-19T20:23:16;2.10;99.90
32728;DHT22;55292;51.844;19.246;2022-10-19T20:28:18;2.00;99.90
32728;DHT22;55292;51.844;19.246;2022-10-19T20:33:21;1.80;99.90
32728;DHT22;55292;51.844;19.246;2022-10-19T20:38:23;1.80;99.90
32728;DHT22;55292;51.844;19.246;2022-10-19T20:43:26;1.70;99.90
32728;DHT22;55292;51.844;19.246;2022-10-19T20:48:29;1.50;99.90
32728;DHT22;55292;51.844;19.246;2022-10-19T20:53:32;1.50;99.90
32728;DHT22;55292;51.844;19.246;2022-10-19T20:58:35;1.30;99.90
32728;DHT22;55292;51.844;19.246;2022-10-19T21:03:49;1.20;99.90
32728;DHT22;55292;51.844;19.246;2022-10-19T21:08:52;1.20;99.90
32728;DHT22;55292;51.844;19.246;2022-10-19T21:14:03;1.00;99.90
32728;DHT22;55292;51.844;19.246;2022-10-19T21:19:15;0.90;99.90
32728;DHT22;55292;51.844;19.246;2022-10-19T21:24:23;0.80;99.90
32728;DHT22;55292;51.844;19.246;2022-10-19T21:29:26;0.90;99.90
32728;DHT22;55292;51.844;19.246;2022-10-19T21:34:30;0.80;99.90
32728;DHT22;55292;51.844;19.246;2022-10-19T21:39:32;0.60;99.90
32728;DHT22;55292;51.844;19.246;2022-10-19T21:44:35;0.70;99.90
32728;DHT22;55292;51.844;19.246;2022-10-19T21:49:37;0.70;99.90
32728;DHT22;55292;51.844;19.246;2022-10-19T21:54:40;0.60;99.90
32728;DHT22;55292;51.844;19.246;2022-10-19T21:59:42;0.60;99.90
32728;DHT22;55292;51.844;19.246;2022-10-19T22:04:45;0.50;99.90
32728;DHT22;55292;51.844;19.246;2022-10-19T22:09:47;0.40;99.90
32728;DHT22;55292;51.844;19.246;2022-10-19T22:14:50;0.40;99.90
32728;DHT22;55292;51.844;19.246;2022-10-19T22:19:52;0.30;99.90
32728;DHT22;55292;51.844;19.246;2022-10-19T22:24:55;0.30;99.90
32728;DHT22;55292;51.844;19.246;2022-10-19T22:29:57;0.20;99.90
32728;DHT22;55292;51.844;19.246;2022-10-19T22:34:59;0.20;99.90
32728;DHT22;55292;51.844;19.246;2022-10-19T22:40:02;0.10;99.90
32728;DHT22;55292;51.844;19.246;2022-10-19T22:45:06;0.10;99.90
32728;DHT22;55292;51.844;19.246;2022-10-19T22:50:08;0.00;99.90
32728;DHT22;55292;51.844;19.246;2022-10-19T22:55:13;0.00;99.90
32728;DHT22;55292;51.844;19.246;2022-10-19T23:00:15;0.10;99.90
32728;DHT22;55292;51.844;19.246;2022-10-19T23:05:20;0.00;99.90
32728;DHT22;55292;51.844;19.246;2022-10-19T23:10:23;0.00;99.90
32728;DHT22;55292;51.844;19.246;2022-10-19T23:15:25;-0.20;99.90
32728;DHT22;55292;51.844;19.246;2022-10-19T23:20:27;-0.30;99.90
32728;DHT22;55292;51.844;19.246;2022-10-19T23:25:30;-0.30;99.90
32728;DHT22;55292;51.844;19.246;2022-10-19T23:30:37;-0.40;99.90
32728;DHT22;55292;51.844;19.246;2022-10-19T23:35:40;-0.40;99.90
32728;DHT22;55292;51.844;19.246;2022-10-19T23:40:43;-0.50;99.90
32728;DHT22;55292;51.844;19.246;2022-10-19T23:45:46;-0.50;99.90
32728;DHT22;55292;51.844;19.246;2022-10-19T23:51:03;-0.50;99.90
32728;DHT22;55292;51.844;19.246;2022-10-19T23:56:11;-0.50;99.90
